Airfield :







YOU CAN JOIN US ON...

 
LOGIN :

Register | Disclaimer

   EN    FR    IT 

 









Legend :    VFR   Marginal VFR   IFR   Intensive IFR   Very Intensive IFR
Visi :
Ceiling :
>= 8 km
>= 3000ft
5 to 8 km
1000 to 3000 ft
1500m to 5 km
500 to 1000 ft
800 to 1500m
200 to 500 ft
< 800m
< 200 ft
Symbols :   Thunderstorms  Fog  Heavy snow  Heavy precipitations  Wind > 20 kt






- Airport Elevation : 377 ft
- IATA code : YPS


CYPD - Port Hawkesbury

CURRENT METAR :
  • 262342Z AUTO 12014G21KT 2 1/2SM -RA BR OVC004 03/03 A2960 RMK PRESFR SLP031

EXPIRED METARs :
  • 262330Z AUTO 13015G25KT 5SM -RA BR OVC004 03/03 A2961 RMK PRESFR SLP034
  • 262324Z AUTO 13017G25KT 6SM -RA -UP BR BKN004 OVC007 03/03 A2962 RMK SLP036
  • 262310Z AUTO 13016G22KT 3SM -UP BR BKN004 OVC007 03/03 A2963 RMK PRESFR SLP039
  • 262302Z AUTO 12013G23KT 2 1/4SM -RA -UP BR BKN004 OVC007 03/03 A2964 RMK PRESFR SLP043
  • 262237Z AUTO 13015G22KT 5SM -RA BR OVC004 03/03 A2966 RMK SLP050
  • 262229Z AUTO 12013G21KT 6SM -RA BR OVC004 03/02 A2966 RMK SLP052
  • 262203Z AUTO 12013G20KT 5SM -RA BR OVC004 02/02 A2968 RMK PRESFR SLP058
  • 262156Z AUTO 12012G18KT 6SM -RA BR OVC004 02/02 A2970 RMK SLP063
  • 262119Z AUTO 12016G23KT 5SM -RA BR OVC004 02/02 A2972 RMK PRESFR SLP071
  • 262116Z AUTO 12015G24KT 6SM -RA BR OVC004 02/02 A2972 RMK SLP073
  • 262100Z AUTO 11011G22KT 7SM OVC004 02/02 A2974 RMK SLP078

TAF N/A



MET'MAP, your aeronautical weather chart ! - Copyright ORBIFLY December 2007 - Disclaimer

ORBIFLY MET'MAP TEAM :

Programming & Development : Alexandra Zaïnal
Concept & original design : Baudouin d'Aumeries
Assistance for programming : Marc-Olivier Méhu
Technical & hardware support : Manuel Goepfert

Contact : metmap@orbifly.com




SOURCES & CREDITS :

   NOAA